Time;durP1;ratioP1;P1;durP2;ratioP2;P2;SDS_P1;SDS_P2;PMS_P1;PMS_P2;Temp;Humidity;BMP_temperature;BMP_pressure;BME280_temperature;BME280_humidity;BME280_pressure;Samples;Min_cycle;Max_cycle;Signal;HPM_P1;HPM_P2
2023/06/15 00:01:06;;;;;;;;;;;;;;;;;;5066402;28;19948;-51
2023/06/15 00:03:31;;;;;;;;;;;;;;;;;;5066656;28;19955;-51
2023/06/15 00:05:57;;;;;;;;;;;;;;;;;;5068323;28;19975;-52
2023/06/15 00:08:23;;;;;;;;;;;;;;;;;;5070525;28;20296;-51
2023/06/15 00:10:49;;;;;;;;;;;;;;;;;;5069743;28;19951;-51
2023/06/15 00:13:15;;;;;;;;;;;;;;;;;;5068755;28;19967;-50
2023/06/15 00:15:41;;;;;;;;;;;;;;;;;;5065908;28;19962;-51
2023/06/15 00:18:07;;;;;;;;;;;;;;;;;;5070503;28;20026;-51
2023/06/15 00:20:34;;;;;;;;;;;;;;;;;;5067996;28;20332;-51
2023/06/15 00:23:00;;;;;;;;;;;;;;;;;;5069858;28;19920;-51
2023/06/15 00:25:26;;;;;;;;;;;;;;;;;;5068504;28;20296;-51
2023/06/15 00:27:52;;;;;;;;;;;;;;;;;;5067190;28;19929;-51
2023/06/15 00:30:18;;;;;;;;;;;;;;;;;;5064749;28;20395;-51
2023/06/15 00:32:44;;;;;;;;;;;;;;;;;;5068938;28;19944;-51
2023/06/15 00:35:10;;;;;;;;;;;;;;;;;;5066126;28;19966;-51
2023/06/15 00:37:36;;;;;;;;;;;;;;;;;;5069596;28;19955;-51
2023/06/15 00:40:03;;;;;;;;;;;;;;;;;;5068857;28;19920;-51
2023/06/15 00:42:30;;;;;;;;;;;;;;;;;;5068079;28;20042;-51
2023/06/15 00:44:56;;;;;;;;;;;;;;;;;;5063630;28;20083;-51
2023/06/15 00:47:22;;;;;;;;;;;;;;;;;;5068797;28;19944;-51
2023/06/15 00:49:47;;;;;;;;;;;;;;;;;;5064099;28;19975;-51
2023/06/15 00:52:13;;;;;;;;;;;;;;;;;;5068024;28;20102;-51
2023/06/15 00:54:40;;;;;;;;;;;;;;;;;;5060772;28;19960;-51
2023/06/15 00:57:06;;;;;;;;;;;;;;;;;;5061422;28;20422;-51
2023/06/15 00:59:32;;;;;;;;;;;;;;;;;;5061839;28;20174;-51
2023/06/15 01:01:58;;;;;;;;;;;;;;;;;;5064618;28;20356;-50
2023/06/15 01:04:24;;;;;;;;;;;;;;;;;;5062105;28;19916;-51
2023/06/15 01:06:51;;;;;;;;;;;;;;;;;;5067675;28;19921;-51
2023/06/15 01:09:17;;;;;;;;;;;;;;;;;;5068304;28;19920;-51
2023/06/15 01:11:43;;;;;;;;;;;;;;;;;;5067724;28;19966;-51
2023/06/15 01:14:09;;;;;;;;;;;;;;;;;;5065580;28;20140;-51
2023/06/15 01:16:37;;;;;;;;;;;;;;;;;;5060531;28;19942;-51
2023/06/15 01:19:03;;;;;;;;;;;;;;;;;;5057966;28;19912;-51
2023/06/15 01:21:29;;;;;;;;;;;;;;;;;;5076285;28;19956;-51
2023/06/15 01:23:56;;;;;;;;;;;;;;;;;;5073002;28;19971;-51
2023/06/15 01:26:24;;;;;;;;;;;;;;;;;;5065489;28;19916;-51
2023/06/15 01:28:50;;;;;;;;;;;;;;;;;;5067208;28;20340;-51
2023/06/15 01:31:15;;;;;;;;;;;;;;;;;;5063696;28;19917;-51
2023/06/15 01:33:41;;;;;;;;;;;;;;;;;;5061005;28;20386;-51
2023/06/15 01:36:07;;;;;;;;;;;;;;;;;;5068117;28;19963;-51
2023/06/15 01:38:33;;;;;;;;;;;;;;;;;;5065681;28;19951;-51
2023/06/15 01:40:59;;;;;;;;;;;;;;;;;;5065880;28;19955;-51
2023/06/15 01:43:25;;;;;;;;;;;;;;;;;;5066494;28;20425;-51
2023/06/15 01:45:51;;;;;;;;;;;;;;;;;;5066909;28;20006;-51
2023/06/15 01:48:17;;;;;;;;;;;;;;;;;;5057735;28;19952;-51
2023/06/15 01:50:43;;;;;;;;;;;;;;;;;;5064344;28;19959;-51
2023/06/15 01:53:09;;;;;;;;;;;;;;;;;;5073962;28;20019;-51
2023/06/15 01:55:35;;;;;;;;;;;;;;;;;;5064548;28;19959;-51
2023/06/15 01:58:01;;;;;;;;;;;;;;;;;;5065395;28;19963;-51
2023/06/15 02:00:27;;;;;;;;;;;;;;;;;;5066226;28;19978;-51
2023/06/15 02:02:53;;;;;;;;;;;;;;;;;;5061920;28;19960;-51
2023/06/15 02:05:19;;;;;;;;;;;;;;;;;;5067618;28;19955;-51
2023/06/15 02:07:45;;;;;;;;;;;;;;;;;;5068411;28;20360;-51
2023/06/15 02:10:11;;;;;;;;;;;;;;;;;;5058227;28;19921;-51
2023/06/15 02:12:37;;;;;;;;;;;;;;;;;;5061440;28;20001;-51
2023/06/15 02:15:03;;;;;;;;;;;;;;;;;;5065865;28;20370;-51
2023/06/15 02:17:30;;;;;;;;;;;;;;;;;;5056123;28;20399;-51
2023/06/15 02:19:56;;;;;;;;;;;;;;;;;;5068297;28;19912;-51
2023/06/15 02:22:22;;;;;;;;;;;;;;;;;;5067150;28;20395;-51
2023/06/15 02:24:48;;;;;;;;;;;;;;;;;;5068424;28;19927;-51
2023/06/15 02:27:14;;;;;;;;;;;;;;;;;;5066623;28;20351;-51
2023/06/15 02:29:40;;;;;;;;;;;;;;;;;;5067643;28;19959;-51
2023/06/15 02:32:06;;;;;;;;;;;;;;;;;;5067417;28;20309;-51
2023/06/15 02:34:32;;;;;;;;;;;;;;;;;;5068318;28;20084;-51
2023/06/15 02:36:58;;;;;;;;;;;;;;;;;;5070548;28;19925;-51
2023/06/15 02:39:24;;;;;;;;;;;;;;;;;;5071735;28;19909;-51
2023/06/15 02:41:50;;;;;;;;;;;;;;;;;;5070664;28;20280;-51
2023/06/15 02:44:16;;;;;;;;;;;;;;;;;;5071854;28;19934;-52
2023/06/15 02:46:42;;;;;;;;;;;;;;;;;;5070975;28;19967;-51
2023/06/15 02:49:08;;;;;;;;;;;;;;;;;;5072341;28;20380;-51
2023/06/15 02:51:35;;;;;;;;;;;;;;;;;;5071019;28;19963;-51
2023/06/15 02:54:01;;;;;;;;;;;;;;;;;;5071616;28;19924;-51
2023/06/15 02:56:29;;;;;;;;;;;;;;;;;;5069601;28;19913;-52
2023/06/15 02:58:55;;;;;;;;;;;;;;;;;;5069933;28;19966;-51
2023/06/15 03:01:21;;;;;;;;;;;;;;;;;;5069327;28;20425;-52
2023/06/15 03:03:47;;;;;;;;;;;;;;;;;;5069570;28;19920;-51
2023/06/15 03:06:14;;;;;;;;;;;;;;;;;;5068204;28;19975;-51
2023/06/15 03:08:41;;;;;;;;;;;;;;;;;;5068356;28;19947;-52
2023/06/15 03:11:06;;;;;;;;;;;;;;;;;;5067458;28;20232;-52
2023/06/15 03:13:32;;;;;;;;;;;;;;;;;;5068872;28;20011;-52
2023/06/15 03:16:00;;;;;;;;;;;;;;;;;;5068453;28;19959;-51
2023/06/15 03:18:27;;;;;;;;;;;;;;;;;;5068573;28;19966;-51
2023/06/15 03:20:53;;;;;;;;;;;;;;;;;;5069271;28;19917;-51
2023/06/15 03:23:18;;;;;;;;;;;;;;;;;;5069382;28;19923;-52
2023/06/15 03:25:44;;;;;;;;;;;;;;;;;;5067413;28;19923;-51
2023/06/15 03:28:11;;;;;;;;;;;;;;;;;;5068712;28;19958;-51
2023/06/15 03:30:40;;;;;;;;;;;;;;;;;;5067771;28;19920;-51
2023/06/15 03:33:06;;;;;;;;;;;;;;;;;;5056938;28;19916;-51
2023/06/15 03:35:32;;;;;;;;;;;;;;;;;;5063496;28;20284;-52
2023/06/15 03:37:58;;;;;;;;;;;;;;;;;;5063511;28;19923;-52
2023/06/15 03:40:24;;;;;;;;;;;;;;;;;;5069964;28;19964;-52
2023/06/15 03:42:50;;;;;;;;;;;;;;;;;;5069426;28;19963;-52
2023/06/15 03:45:17;;;;;;;;;;;;;;;;;;5067196;28;19955;-52
2023/06/15 03:47:43;;;;;;;;;;;;;;;;;;5069126;28;19913;-52
2023/06/15 03:50:11;;;;;;;;;;;;;;;;;;5069501;28;19979;-52
2023/06/15 03:52:37;;;;;;;;;;;;;;;;;;5069763;28;19920;-52
2023/06/15 03:55:03;;;;;;;;;;;;;;;;;;5067964;28;19959;-51
2023/06/15 03:57:29;;;;;;;;;;;;;;;;;;5068457;28;19920;-52
2023/06/15 03:59:55;;;;;;;;;;;;;;;;;;5065657;28;20458;-52
2023/06/15 04:02:21;;;;;;;;;;;;;;;;;;5069504;28;19960;-51
2023/06/15 04:04:47;;;;;;;;;;;;;;;;;;5068777;28;20014;-52
2023/06/15 04:07:13;;;;;;;;;;;;;;;;;;5067815;28;19979;-52
2023/06/15 04:09:39;;;;;;;;;;;;;;;;;;5066999;28;19959;-66
2023/06/15 04:12:05;;;;;;;;;;;;;;;;;;5068583;28;19983;-52
2023/06/15 04:14:31;;;;;;;;;;;;;;;;;;5070385;28;19947;-51
2023/06/15 04:16:57;;;;;;;;;;;;;;;;;;5065221;28;19955;-52
2023/06/15 04:19:25;;;;;;;;;;;;;;;;;;5069498;28;19916;-51
2023/06/15 04:21:51;;;;;;;;;;;;;;;;;;5067523;28;19920;-51
2023/06/15 04:24:17;;;;;;;;;;;;;;;;;;5069108;28;19923;-52
2023/06/15 04:26:43;;;;;;;;;;;;;;;;;;5066251;28;20351;-51
2023/06/15 04:29:09;;;;;;;;;;;;;;;;;;5069933;28;19912;-52
2023/06/15 04:31:36;;;;;;;;;;;;;;;;;;5068518;28;20376;-52
2023/06/15 04:34:04;;;;;;;;;;;;;;;;;;5069595;28;19917;-52
2023/06/15 04:36:31;;;;;;;;;;;;;;;;;;5067660;28;19927;-52
2023/06/15 04:38:57;;;;;;;;;;;;;;;;;;5056388;28;20317;-51
2023/06/15 04:41:23;;;;;;;;;;;;;;;;;;5070043;28;20390;-52
2023/06/15 04:43:49;;;;;;;;;;;;;;;;;;5065204;28;19917;-52
2023/06/15 04:46:16;;;;;;;;;;;;;;;;;;5065358;28;20102;-52
2023/06/15 04:48:43;;;;;;;;;;;;;;;;;;5062536;28;19920;-52
2023/06/15 04:51:09;;;;;;;;;;;;;;;;;;5070096;28;20003;-53
2023/06/15 04:53:35;;;;;;;;;;;;;;;;;;5069311;28;19955;-52
2023/06/15 04:56:01;;;;;;;;;;;;;;;;;;5057986;28;20396;-52
2023/06/15 04:58:27;;;;;;;;;;;;;;;;;;5063631;28;20049;-53
2023/06/15 05:00:53;;;;;;;;;;;;;;;;;;5067664;28;19921;-56
2023/06/15 05:03:20;;;;;;;;;;;;;;;;;;5067478;28;20249;-53
2023/06/15 05:05:46;;;;;;;;;;;;;;;;;;5066540;28;19916;-52
2023/06/15 05:08:11;;;;;;;;;;;;;;;;;;5068032;28;20010;-52
2023/06/15 05:10:38;;;;;;;;;;;;;;;;;;5066516;28;19916;-51
2023/06/15 05:13:04;;;;;;;;;;;;;;;;;;5063782;28;19921;-51
2023/06/15 05:15:30;;;;;;;;;;;;;;;;;;5066618;28;20331;-52
2023/06/15 05:17:56;;;;;;;;;;;;;;;;;;5065936;28;19982;-51
2023/06/15 05:20:22;;;;;;;;;;;;;;;;;;5068057;28;19935;-51
2023/06/15 05:22:48;;;;;;;;;;;;;;;;;;5061913;28;19913;-53
2023/06/15 05:25:14;;;;;;;;;;;;;;;;;;5068215;28;20358;-51
2023/06/15 05:27:41;;;;;;;;;;;;;;;;;;5066872;28;20019;-56
2023/06/15 05:30:08;;;;;;;;;;;;;;;;;;5058057;28;19970;-51
2023/06/15 05:32:37;;;;;;;;;;;;;;;;;;5064789;28;19928;-52
2023/06/15 05:35:03;;;;;;;;;;;;;;;;;;5066327;28;19921;-52
2023/06/15 05:37:29;;;;;;;;;;;;;;;;;;5063854;28;19928;-58
2023/06/15 05:39:55;;;;;;;;;;;;;;;;;;5057729;28;20046;-57
2023/06/15 05:42:21;;;;;;;;;;;;;;;;;;5062787;28;19939;-58
2023/06/15 05:44:47;;;;;;;;;;;;;;;;;;5067919;28;19923;-58
2023/06/15 05:47:13;;;;;;;;;;;;;;;;;;5059309;28;19967;-59
2023/06/15 05:49:39;;;;;;;;;;;;;;;;;;5058571;28;19963;-59
2023/06/15 05:52:05;;;;;;;;;;;;;;;;;;5064097;28;19971;-59
2023/06/15 05:54:31;;;;;;;;;;;;;;;;;;5067584;28;20070;-58
2023/06/15 05:56:57;;;;;;;;;;;;;;;;;;5067016;28;19931;-57
2023/06/15 05:59:23;;;;;;;;;;;;;;;;;;5066952;28;20434;-57
2023/06/15 06:01:49;;;;;;;;;;;;;;;;;;5066297;28;19921;-58
2023/06/15 06:04:15;;;;;;;;;;;;;;;;;;5056451;28;20336;-57
2023/06/15 06:06:41;;;;;;;;;;;;;;;;;;5057862;28;19948;-59
2023/06/15 06:09:07;;;;;;;;;;;;;;;;;;5043647;28;19933;-58
2023/06/15 06:11:33;;;;;;;;;;;;;;;;;;5042143;28;20031;-59
2023/06/15 06:13:59;;;;;;;;;;;;;;;;;;5053161;28;20328;-57
2023/06/15 06:16:25;;;;;;;;;;;;;;;;;;5057756;28;20083;-57
2023/06/15 06:18:51;;;;;;;;;;;;;;;;;;5067759;28;20004;-57
2023/06/15 06:21:17;;;;;;;;;;;;;;;;;;5065295;28;19948;-60
2023/06/15 06:23:43;;;;;;;;;;;;;;;;;;5063495;28;19917;-58
2023/06/15 06:26:10;;;;;;;;;;;;;;;;;;5068080;28;20007;-58
2023/06/15 06:28:36;;;;;;;;;;;;;;;;;;5066725;28;19916;-58
2023/06/15 06:31:02;;;;;;;;;;;;;;;;;;5064798;28;19924;-58
2023/06/15 06:33:28;;;;;;;;;;;;;;;;;;5066002;28;20013;-58
2023/06/15 06:35:54;;;;;;;;;;;;;;;;;;5064118;28;19955;-57
2023/06/15 06:38:20;;;;;;;;;;;;;;;;;;5056995;28;19916;-58
2023/06/15 06:40:46;;;;;;;;;;;;;;;;;;5067580;28;19970;-58
2023/06/15 06:43:12;;;;;;;;;;;;;;;;;;5067964;28;19913;-58
2023/06/15 06:45:38;;;;;;;;;;;;;;;;;;5067384;28;19981;-58
2023/06/15 06:48:04;;;;;;;;;;;;;;;;;;5067402;28;19939;-58
2023/06/15 06:50:30;;;;;;;;;;;;;;;;;;5065443;28;19967;-55
2023/06/15 06:52:56;;;;;;;;;;;;;;;;;;5066486;28;19967;-55
2023/06/15 06:55:23;;;;;;;;;;;;;;;;;;5064582;28;19958;-56
2023/06/15 06:57:49;;;;;;;;;;;;;;;;;;5060713;28;19920;-55
2023/06/15 07:00:15;;;;;;;;;;;;;;;;;;5066358;28;19928;-55
2023/06/15 07:02:41;;;;;;;;;;;;;;;;;;5062789;28;20434;-54
2023/06/15 07:05:07;;;;;;;;;;;;;;;;;;5058317;28;19919;-56
2023/06/15 07:07:33;;;;;;;;;;;;;;;;;;5063582;28;20022;-56
2023/06/15 07:09:59;;;;;;;;;;;;;;;;;;5069930;28;19928;-55
2023/06/15 07:12:25;;;;;;;;;;;;;;;;;;5066137;28;20414;-56
2023/06/15 07:14:51;;;;;;;;;;;;;;;;;;5067439;28;19971;-55
2023/06/15 07:17:17;;;;;;;;;;;;;;;;;;5067373;28;19978;-55
2023/06/15 07:19:43;;;;;;;;;;;;;;;;;;5064024;28;20363;-55
2023/06/15 07:22:09;;;;;;;;;;;;;;;;;;5065318;28;19920;-55
2023/06/15 07:24:36;;;;;;;;;;;;;;;;;;5067520;28;19920;-55
2023/06/15 07:27:02;;;;;;;;;;;;;;;;;;5066045;28;19946;-55
2023/06/15 07:29:28;;;;;;;;;;;;;;;;;;5068803;28;20326;-55
2023/06/15 07:31:54;;;;;;;;;;;;;;;;;;5069271;28;19920;-54
2023/06/15 07:34:20;;;;;;;;;;;;;;;;;;5068248;28;20017;-55
2023/06/15 07:36:46;;;;;;;;;;;;;;;;;;5071171;28;19958;-55
2023/06/15 07:39:12;;;;;;;;;;;;;;;;;;5071782;28;19940;-55
2023/06/15 07:41:38;;;;;;;;;;;;;;;;;;5065338;28;19951;-51
2023/06/15 07:44:04;;;;;;;;;;;;;;;;;;5070134;28;20322;-51
2023/06/15 07:46:30;;;;;;;;;;;;;;;;;;5065504;28;19921;-51
2023/06/15 07:48:56;;;;;;;;;;;;;;;;;;5068764;28;20303;-51
2023/06/15 07:51:22;;;;;;;;;;;;;;;;;;5063438;28;19970;-53
2023/06/15 07:53:48;;;;;;;;;;;;;;;;;;5064484;28;20489;-52
2023/06/15 07:56:15;;;;;;;;;;;;;;;;;;5069286;28;19963;-52
2023/06/15 07:58:41;;;;;;;;;;;;;;;;;;5069245;28;19924;-52
2023/06/15 08:01:07;;;;;;;;;;;;;;;;;;5070962;28;20050;-52
2023/06/15 08:03:33;;;;;;;;;;;;;;;;;;5070339;28;19949;-52
2023/06/15 08:05:59;;;;;;;;;;;;;;;;;;5070996;28;19917;-57
2023/06/15 08:08:25;;;;;;;;;;;;;;;;;;5068615;28;20102;-53
2023/06/15 08:10:51;;;;;;;;;;;;;;;;;;5069510;28;19954;-53
2023/06/15 08:13:18;;;;;;;;;;;;;;;;;;5068234;28;20061;-54
2023/06/15 08:15:44;;;;;;;;;;;;;;;;;;5068960;28;20012;-52
2023/06/15 08:18:10;;;;;;;;;;;;;;;;;;5069580;28;20030;-52
2023/06/15 08:20:36;;;;;;;;;;;;;;;;;;5070007;28;19983;-52
2023/06/15 08:23:02;;;;;;;;;;;;;;;;;;5070794;28;19954;-52
2023/06/15 08:25:28;;;;;;;;;;;;;;;;;;5069766;28;19954;-52
2023/06/15 08:27:54;;;;;;;;;;;;;;;;;;5070029;28;19982;-53
2023/06/15 08:30:21;;;;;;;;;;;;;;;;;;5069231;28;19935;-52
2023/06/15 08:32:47;;;;;;;;;;;;;;;;;;5069470;28;20285;-59
2023/06/15 08:35:14;;;;;;;;;;;;;;;;;;5070202;28;19915;-52
2023/06/15 08:37:40;;;;;;;;;;;;;;;;;;5070305;28;20030;-53
2023/06/15 08:40:08;;;;;;;;;;;;;;;;;;5066441;28;20279;-53
2023/06/15 08:42:34;;;;;;;;;;;;;;;;;;5066796;28;19931;-53
2023/06/15 08:45:00;;;;;;;;;;;;;;;;;;5069828;28;19952;-54
2023/06/15 08:47:26;;;;;;;;;;;;;;;;;;5069343;28;19999;-55
2023/06/15 08:49:52;;;;;;;;;;;;;;;;;;5070136;28;20012;-54
2023/06/15 08:52:20;;;;;;;;;;;;;;;;;;5070038;28;19948;-53
2023/06/15 08:54:46;;;;;;;;;;;;;;;;;;5068815;28;19944;-54
2023/06/15 08:57:12;;;;;;;;;;;;;;;;;;5068218;28;19912;-54
2023/06/15 08:59:38;;;;;;;;;;;;;;;;;;5069725;28;19947;-54
2023/06/15 09:02:06;;;;;;;;;;;;;;;;;;5066271;28;20285;-54
2023/06/15 09:04:32;;;;;;;;;;;;;;;;;;5068537;28;20390;-55
2023/06/15 09:06:58;;;;;;;;;;;;;;;;;;5069496;28;19914;-54
2023/06/15 09:09:25;;;;;;;;;;;;;;;;;;5069717;28;19920;-54
2023/06/15 09:11:51;;;;;;;;;;;;;;;;;;5067465;28;19916;-55
2023/06/15 09:14:17;;;;;;;;;;;;;;;;;;5058769;28;20414;-55
2023/06/15 09:16:43;;;;;;;;;;;;;;;;;;5066819;28;20355;-54
2023/06/15 09:19:11;;;;;;;;;;;;;;;;;;5065784;28;19916;-54
2023/06/15 09:21:37;;;;;;;;;;;;;;;;;;5069617;28;19912;-56
2023/06/15 09:24:03;;;;;;;;;;;;;;;;;;5067645;28;19920;-55
2023/06/15 09:26:29;;;;;;;;;;;;;;;;;;5061589;28;20313;-54
2023/06/15 09:28:55;;;;;;;;;;;;;;;;;;5060136;28;19934;-55
2023/06/15 09:31:23;;;;;;;;;;;;;;;;;;5066471;28;20326;-56
2023/06/15 09:33:49;;;;;;;;;;;;;;;;;;5069049;28;19919;-55
2023/06/15 09:36:15;;;;;;;;;;;;;;;;;;5070595;28;20383;-56
2023/06/15 09:38:42;;;;;;;;;;;;;;;;;;5065135;28;20084;-55
2023/06/15 09:41:08;;;;;;;;;;;;;;;;;;5069575;28;20421;-57
2023/06/15 09:43:34;;;;;;;;;;;;;;;;;;5067886;28;19909;-55
2023/06/15 09:46:00;;;;;;;;;;;;;;;;;;5069132;28;19960;-56
2023/06/15 09:48:26;;;;;;;;;;;;;;;;;;5068901;28;20045;-56
2023/06/15 09:50:53;;;;;;;;;;;;;;;;;;5069029;28;19941;-57
2023/06/15 09:53:19;;;;;;;;;;;;;;;;;;5067711;28;19970;-56
2023/06/15 09:55:46;;;;;;;;;;;;;;;;;;5069033;28;19932;-56
2023/06/15 09:58:12;;;;;;;;;;;;;;;;;;5068470;28;19916;-56
2023/06/15 10:00:38;;;;;;;;;;;;;;;;;;5066183;28;19947;-56
2023/06/15 10:03:06;;;;;;;;;;;;;;;;;;5068616;28;19912;-56
2023/06/15 10:05:32;;;;;;;;;;;;;;;;;;5067419;28;20348;-57
2023/06/15 10:07:58;;;;;;;;;;;;;;;;;;5058132;28;20014;-54
2023/06/15 10:10:24;;;;;;;;;;;;;;;;;;5063740;28;19920;-54
2023/06/15 10:12:52;;;;;;;;;;;;;;;;;;5063751;28;20404;-52
2023/06/15 10:15:20;;;;;;;;;;;;;;;;;;5068035;28;19928;-55
2023/06/15 10:17:46;;;;;;;;;;;;;;;;;;5066239;28;20283;-53
2023/06/15 10:20:12;;;;;;;;;;;;;;;;;;5071010;28;19967;-53
2023/06/15 10:22:38;;;;;;;;;;;;;;;;;;5068108;28;20346;-53
2023/06/15 10:25:05;;;;;;;;;;;;;;;;;;5064733;28;19956;-52
2023/06/15 10:27:31;;;;;;;;;;;;;;;;;;5066044;28;19993;-53
2023/06/15 10:29:57;;;;;;;;;;;;;;;;;;5065593;28;20010;-53
2023/06/15 10:32:23;;;;;;;;;;;;;;;;;;5066603;28;20005;-53
2023/06/15 10:34:49;;;;;;;;;;;;;;;;;;5067398;28;19916;-53
2023/06/15 10:37:15;;;;;;;;;;;;;;;;;;5067951;28;19948;-53
2023/06/15 10:39:41;;;;;;;;;;;;;;;;;;5068021;28;19925;-56
2023/06/15 10:42:08;;;;;;;;;;;;;;;;;;5067812;28;19938;-53
2023/06/15 10:44:33;;;;;;;;;;;;;;;;;;5068244;28;20480;-60
2023/06/15 10:47:00;;;;;;;;;;;;;;;;;;5068136;28;20072;-53
2023/06/15 10:49:26;;;;;;;;;;;;;;;;;;5067332;28;19916;-54
2023/06/15 10:51:52;;;;;;;;;;;;;;;;;;5061143;28;20322;-53
2023/06/15 10:54:18;;;;;;;;;;;;;;;;;;5063927;28;19923;-53
2023/06/15 10:56:44;;;;;;;;;;;;;;;;;;5062427;28;19974;-53
2023/06/15 10:59:10;;;;;;;;;;;;;;;;;;5070325;28;19944;-53
2023/06/15 11:01:36;;;;;;;;;;;;;;;;;;5069702;28;19968;-53
2023/06/15 11:04:02;;;;;;;;;;;;;;;;;;5069940;28;19959;-53
2023/06/15 11:06:28;;;;;;;;;;;;;;;;;;5066818;28;20399;-53
2023/06/15 11:08:54;;;;;;;;;;;;;;;;;;5070373;28;19959;-53
2023/06/15 11:11:20;;;;;;;;;;;;;;;;;;5071564;28;19912;-53
2023/06/15 11:13:46;;;;;;;;;;;;;;;;;;5067059;28;19916;-53
2023/06/15 11:16:12;;;;;;;;;;;;;;;;;;5068836;28;19959;-53
2023/06/15 11:18:38;;;;;;;;;;;;;;;;;;5071523;28;20051;-53
2023/06/15 11:21:04;;;;;;;;;;;;;;;;;;5062747;28;19971;-53
2023/06/15 11:23:32;;;;;;;;;;;;;;;;;;5060814;28;19927;-53
2023/06/15 11:26:01;;;;;;;;;;;;;;;;;;5062906;28;19959;-53
2023/06/15 11:28:30;;;;;;;;;;;;;;;;;;5064224;28;20437;-53
2023/06/15 11:30:57;;;;;;;;;;;;;;;;;;5067772;28;19920;-53
2023/06/15 11:33:23;;;;;;;;;;;;;;;;;;5065130;28;20463;-52
2023/06/15 11:35:49;;;;;;;;;;;;;;;;;;5066314;28;19967;-53
2023/06/15 11:38:15;;;;;;;;;;;;;;;;;;5067507;28;19955;-53
2023/06/15 11:40:41;;;;;;;;;;;;;;;;;;5063557;28;20086;-55
2023/06/15 11:43:11;;;;;;;;;;;;;;;;;;5062853;28;19952;-53
2023/06/15 11:45:38;;;;;;;;;;;;;;;;;;5064022;28;19925;-53
2023/06/15 11:48:04;;;;;;;;;;;;;;;;;;5063768;28;20457;-53
2023/06/15 11:50:30;;;;;;;;;;;;;;;;;;5065910;28;19970;-53
2023/06/15 11:52:56;;;;;;;;;;;;;;;;;;5064957;28;19956;-53
2023/06/15 11:55:22;;;;;;;;;;;;;;;;;;5066868;28;19962;-52
2023/06/15 11:57:48;;;;;;;;;;;;;;;;;;5062867;28;20657;-52
2023/06/15 12:00:14;;;;;;;;;;;;;;;;;;5063041;28;19962;-53
2023/06/15 12:02:41;;;;;;;;;;;;;;;;;;5062412;28;19917;-53
2023/06/15 12:05:07;;;;;;;;;;;;;;;;;;5063205;28;19935;-53
2023/06/15 12:07:34;;;;;;;;;;;;;;;;;;5061706;28;19964;-53
2023/06/15 12:10:00;;;;;;;;;;;;;;;;;;5068837;28;19931;-53
2023/06/15 12:12:26;;;;;;;;;;;;;;;;;;5061146;28;19923;-53
2023/06/15 12:14:52;;;;;;;;;;;;;;;;;;5063695;28;20023;-53
2023/06/15 12:17:18;;;;;;;;;;;;;;;;;;5075992;28;19987;-53
2023/06/15 12:19:44;;;;;;;;;;;;;;;;;;5061803;28;20051;-54
2023/06/15 12:22:10;;;;;;;;;;;;;;;;;;5064966;28;19987;-53
2023/06/15 12:24:36;;;;;;;;;;;;;;;;;;5069596;28;20490;-54
2023/06/15 12:27:02;;;;;;;;;;;;;;;;;;5068054;28;20395;-54
2023/06/15 12:29:28;;;;;;;;;;;;;;;;;;5068688;28;20256;-54
2023/06/15 12:31:54;;;;;;;;;;;;;;;;;;5061420;28;19944;-54
2023/06/15 12:34:20;;;;;;;;;;;;;;;;;;5061051;28;20374;-54
2023/06/15 12:36:47;;;;;;;;;;;;;;;;;;5059749;28;19924;-54
2023/06/15 12:39:13;;;;;;;;;;;;;;;;;;5058492;28;20364;-54
2023/06/15 12:41:39;;;;;;;;;;;;;;;;;;5060849;28;19917;-53
2023/06/15 12:44:06;;;;;;;;;;;;;;;;;;5058260;28;19950;-54
2023/06/15 12:46:35;;;;;;;;;;;;;;;;;;5058519;28;19916;-54
2023/06/15 12:49:01;;;;;;;;;;;;;;;;;;5060126;28;20617;-54
2023/06/15 12:51:28;;;;;;;;;;;;;;;;;;5062358;28;19920;-54
2023/06/15 12:53:55;;;;;;;;;;;;;;;;;;5061245;28;20011;-54
2023/06/15 12:56:21;;;;;;;;;;;;;;;;;;5062280;28;19916;-54
2023/06/15 12:58:47;;;;;;;;;;;;;;;;;;5059986;28;20290;-54
2023/06/15 13:01:13;;;;;;;;;;;;;;;;;;5061346;28;19923;-54
2023/06/15 13:03:39;;;;;;;;;;;;;;;;;;5058966;28;20031;-54
2023/06/15 13:06:06;;;;;;;;;;;;;;;;;;5058812;28;20534;-54
2023/06/15 13:08:32;;;;;;;;;;;;;;;;;;5061387;28;19999;-56
2023/06/15 13:10:58;;;;;;;;;;;;;;;;;;5070181;28;20015;-54
2023/06/15 13:13:24;;;;;;;;;;;;;;;;;;5067430;28;20360;-54
2023/06/15 13:15:50;;;;;;;;;;;;;;;;;;5067801;28;19908;-54
2023/06/15 13:18:16;;;;;;;;;;;;;;;;;;5066428;28;19916;-54
2023/06/15 13:20:42;;;;;;;;;;;;;;;;;;5064747;28;19951;-53
2023/06/15 13:23:08;;;;;;;;;;;;;;;;;;5068563;28;19971;-54
2023/06/15 13:25:34;;;;;;;;;;;;;;;;;;5068344;28;19917;-54
2023/06/15 13:28:00;;;;;;;;;;;;;;;;;;5068688;28;20459;-54
2023/06/15 13:30:26;;;;;;;;;;;;;;;;;;5069094;28;19963;-53
2023/06/15 13:32:55;;;;;;;;;;;;;;;;;;5068847;28;19951;-52
2023/06/15 13:35:21;;;;;;;;;;;;;;;;;;5069023;28;19968;-54
2023/06/15 13:37:47;;;;;;;;;;;;;;;;;;5068978;28;19944;-54
2023/06/15 13:40:13;;;;;;;;;;;;;;;;;;5069770;28;19999;-54
2023/06/15 13:42:39;;;;;;;;;;;;;;;;;;5068047;28;19940;-54
2023/06/15 13:45:05;;;;;;;;;;;;;;;;;;5067453;28;19951;-53
2023/06/15 13:47:31;;;;;;;;;;;;;;;;;;5060781;28;20320;-53
2023/06/15 13:49:58;;;;;;;;;;;;;;;;;;5061221;28;20447;-55
2023/06/15 13:52:24;;;;;;;;;;;;;;;;;;5068885;28;19919;-54
2023/06/15 13:54:50;;;;;;;;;;;;;;;;;;5069373;28;19923;-53
2023/06/15 13:57:16;;;;;;;;;;;;;;;;;;5068617;28;19924;-54
2023/06/15 13:59:42;;;;;;;;;;;;;;;;;;5068385;28;19955;-54
2023/06/15 14:02:08;;;;;;;;;;;;;;;;;;5068170;28;20384;-53
2023/06/15 14:04:35;;;;;;;;;;;;;;;;;;5069033;28;20364;-54
2023/06/15 14:07:01;;;;;;;;;;;;;;;;;;5068982;28;20355;-53
2023/06/15 14:09:27;;;;;;;;;;;;;;;;;;5060478;28;19967;-53
2023/06/15 14:11:57;;;;;;;;;;;;;;;;;;5059577;28;19963;-52
2023/06/15 14:14:23;;;;;;;;;;;;;;;;;;5061495;28;19928;-57
2023/06/15 14:16:49;;;;;;;;;;;;;;;;;;5060163;28;19917;-54
2023/06/15 14:19:15;;;;;;;;;;;;;;;;;;5060507;28;20031;-54
2023/06/15 14:21:41;;;;;;;;;;;;;;;;;;5062462;28;19924;-53
2023/06/15 14:24:07;;;;;;;;;;;;;;;;;;5061138;28;20429;-54
2023/06/15 14:26:33;;;;;;;;;;;;;;;;;;5063533;28;20351;-54
2023/06/15 14:28:59;;;;;;;;;;;;;;;;;;5059369;28;20349;-54
2023/06/15 14:31:25;;;;;;;;;;;;;;;;;;5063470;28;19944;-60
2023/06/15 14:33:51;;;;;;;;;;;;;;;;;;5067521;28;19948;-54
2023/06/15 14:36:17;;;;;;;;;;;;;;;;;;5066846;28;19948;-54
2023/06/15 14:38:43;;;;;;;;;;;;;;;;;;5067429;28;19920;-54
2023/06/15 14:41:10;;;;;;;;;;;;;;;;;;5067174;28;20497;-54
2023/06/15 14:43:36;;;;;;;;;;;;;;;;;;5069206;28;19916;-55
2023/06/15 14:46:02;;;;;;;;;;;;;;;;;;5066115;28;19923;-54
2023/06/15 14:48:28;;;;;;;;;;;;;;;;;;5071263;28;19956;-54
2023/06/15 14:50:54;;;;;;;;;;;;;;;;;;5063419;28;19964;-54
2023/06/15 14:53:20;;;;;;;;;;;;;;;;;;5070508;28;19964;-53
2023/06/15 14:55:46;;;;;;;;;;;;;;;;;;5074453;28;19920;-54
2023/06/15 14:58:12;;;;;;;;;;;;;;;;;;5074238;28;20413;-53
2023/06/15 15:00:38;;;;;;;;;;;;;;;;;;5071001;28;19917;-53
2023/06/15 15:03:04;;;;;;;;;;;;;;;;;;5071618;28;19959;-54
2023/06/15 15:05:30;;;;;;;;;;;;;;;;;;5068046;28;19981;-53
2023/06/15 15:07:56;;;;;;;;;;;;;;;;;;5068358;28;19920;-53
2023/06/15 15:10:22;;;;;;;;;;;;;;;;;;5068754;28;19975;-54
2023/06/15 15:12:48;;;;;;;;;;;;;;;;;;5069204;28;20040;-52
2023/06/15 15:15:14;;;;;;;;;;;;;;;;;;5081653;28;19966;-53
2023/06/15 15:17:40;;;;;;;;;;;;;;;;;;5065669;28;20081;-53
2023/06/15 15:20:06;;;;;;;;;;;;;;;;;;5069904;28;19920;-54
2023/06/15 15:22:33;;;;;;;;;;;;;;;;;;5067624;28;20408;-53
2023/06/15 15:24:59;;;;;;;;;;;;;;;;;;5065836;28;19931;-53
2023/06/15 15:27:25;;;;;;;;;;;;;;;;;;5066213;28;20283;-53
2023/06/15 15:29:51;;;;;;;;;;;;;;;;;;5066860;28;20017;-54
2023/06/15 15:32:17;;;;;;;;;;;;;;;;;;5067647;28;19920;-54
2023/06/15 15:34:43;;;;;;;;;;;;;;;;;;5067753;28;19966;-53
2023/06/15 15:37:09;;;;;;;;;;;;;;;;;;5065487;28;20380;-53
2023/06/15 15:39:35;;;;;;;;;;;;;;;;;;5067081;28;19913;-54
2023/06/15 15:42:01;;;;;;;;;;;;;;;;;;5069767;28;19959;-53
2023/06/15 15:44:27;;;;;;;;;;;;;;;;;;5062529;28;19958;-54
2023/06/15 15:46:53;;;;;;;;;;;;;;;;;;5071361;28;19920;-53
2023/06/15 15:49:19;;;;;;;;;;;;;;;;;;5070663;28;19955;-53
2023/06/15 15:51:45;;;;;;;;;;;;;;;;;;5071884;28;19952;-54
2023/06/15 15:54:11;;;;;;;;;;;;;;;;;;5071303;28;20016;-53
2023/06/15 15:56:37;;;;;;;;;;;;;;;;;;5070969;28;20366;-54
2023/06/15 15:59:03;;;;;;;;;;;;;;;;;;5069349;28;20003;-53
2023/06/15 16:01:29;;;;;;;;;;;;;;;;;;5070633;28;19967;-54
2023/06/15 16:03:55;;;;;;;;;;;;;;;;;;5064956;28;19976;-53
2023/06/15 16:06:21;;;;;;;;;;;;;;;;;;5071933;28;20297;-53
2023/06/15 16:08:47;;;;;;;;;;;;;;;;;;5071113;28;20016;-54
2023/06/15 16:11:13;;;;;;;;;;;;;;;;;;5071501;28;20092;-53
2023/06/15 16:13:39;;;;;;;;;;;;;;;;;;5069557;28;20344;-53
2023/06/15 16:16:05;;;;;;;;;;;;;;;;;;5070967;28;20386;-53
2023/06/15 16:18:31;;;;;;;;;;;;;;;;;;5068125;28;19966;-54
2023/06/15 16:20:57;;;;;;;;;;;;;;;;;;5066321;28;19948;-54
2023/06/15 16:23:23;;;;;;;;;;;;;;;;;;5071314;28;19947;-54
2023/06/15 16:25:49;;;;;;;;;;;;;;;;;;5070172;28;20018;-54
2023/06/15 16:28:15;;;;;;;;;;;;;;;;;;5070251;28;20312;-54
2023/06/15 16:30:41;;;;;;;;;;;;;;;;;;5071079;28;20006;-54
2023/06/15 16:33:07;;;;;;;;;;;;;;;;;;5070431;28;19973;-54
2023/06/15 16:35:33;;;;;;;;;;;;;;;;;;5070535;28;19999;-54
2023/06/15 16:37:59;;;;;;;;;;;;;;;;;;5070888;28;19920;-54